Time;durP1;ratioP1;P1;durP2;ratioP2;P2;SDS_P1;SDS_P2;PMS_P1;PMS_P2;Temp;Humidity;BMP_temperature;BMP_pressure;BME280_temperature;BME280_humidity;BME280_pressure;Samples;Min_cycle;Max_cycle;Signal;HPM_P1;HPM_P2
2022/07/03 00:01:22;;;;;;;;;;;17.20;99.90;;;;;;4771683;30;20383;-71
2022/07/03 00:03:47;;;;;;;;;;;17.20;99.90;;;;;;4788158;29;19932;-70
2022/07/03 00:06:13;;;;;;;;;;;17.20;99.90;;;;;;4788440;29;19936;-69
2022/07/03 00:08:38;;;;;;;;;;;17.10;99.90;;;;;;4790595;29;20144;-70
2022/07/03 00:11:08;;;;;;;;;;;17.10;99.90;;;;;;4791060;29;19928;-70
2022/07/03 00:13:33;;;;;;;;;;;17.10;99.90;;;;;;4784350;29;19933;-69
2022/07/03 00:15:59;;;;;;;;;;;17.00;99.90;;;;;;4775239;30;19926;-71
2022/07/03 00:18:24;;;;;;;;;;;17.00;99.90;;;;;;4785120;29;20375;-69
2022/07/03 00:20:54;;;;;;;;;;;17.00;99.90;;;;;;4805272;29;19982;-70
2022/07/03 00:23:21;;;;;;;;;;;16.90;99.90;;;;;;4808967;29;20291;-72
2022/07/03 00:25:47;;;;;;;;;;;16.90;99.90;;;;;;4796568;29;19940;-70
2022/07/03 00:28:12;;;;;;;;;;;17.10;99.90;;;;;;4801470;29;19925;-69
2022/07/03 00:30:38;;;;;;;;;;;16.90;99.90;;;;;;4790482;29;19976;-69
2022/07/03 00:33:04;;;;;;;;;;;16.90;99.90;;;;;;4775339;29;20457;-71
2022/07/03 00:35:34;;;;;;;;;;;16.90;99.90;;;;;;4789201;29;19932;-70
2022/07/03 00:38:00;;;;;;;;;;;16.90;99.90;;;;;;4804197;29;19939;-69
2022/07/03 00:40:26;;;;;;;;;;;16.90;99.90;;;;;;4804166;29;19925;-69
2022/07/03 00:42:52;;;;;;;;;;;16.80;99.90;;;;;;4790302;29;19925;-70
2022/07/03 00:45:19;;;;;;;;;;;16.80;99.90;;;;;;4790795;29;20016;-70
2022/07/03 00:47:44;;;;;;;;;;;16.80;99.90;;;;;;4790609;29;20006;-71
2022/07/03 00:50:10;;;;;;;;;;;16.70;99.90;;;;;;4806581;29;20364;-71
2022/07/03 00:52:36;;;;;;;;;;;16.60;99.90;;;;;;4806595;29;19925;-69
2022/07/03 00:55:06;;;;;;;;;;;16.60;99.90;;;;;;4785072;29;20328;-69
2022/07/03 00:57:31;;;;;;;;;;;16.60;99.90;;;;;;4782321;29;20374;-69
2022/07/03 01:00:00;;;;;;;;;;;16.50;99.90;;;;;;4794620;29;19977;-69
2022/07/03 01:02:40;;;;;;;;;;;16.50;99.90;;;;;;4805104;29;19969;-70
2022/07/03 01:05:11;;;;;;;;;;;16.50;99.90;;;;;;4784993;29;20401;-68
2022/07/03 01:07:37;;;;;;;;;;;16.40;99.90;;;;;;4784344;29;20368;-71
2022/07/03 01:10:05;;;;;;;;;;;16.40;99.90;;;;;;4790143;29;19931;-70
2022/07/03 01:12:31;;;;;;;;;;;16.30;99.90;;;;;;4774732;29;19925;-69
2022/07/03 01:15:02;;;;;;;;;;;16.30;99.90;;;;;;4791966;29;19925;-69
2022/07/03 01:17:32;;;;;;;;;;;16.20;99.90;;;;;;4801765;29;19931;-71
2022/07/03 01:20:01;;;;;;;;;;;16.20;99.90;;;;;;4801537;29;19925;-70
2022/07/03 01:22:40;;;;;;;;;;;16.10;99.90;;;;;;4788035;29;20375;-70
2022/07/03 01:25:13;;;;;;;;;;;16.10;99.90;;;;;;4785456;29;20000;-70
2022/07/03 01:28:01;;;;;;;;;;;16.00;99.90;;;;;;4787751;29;20376;-71
2022/07/03 01:30:31;;;;;;;;;;;15.90;99.90;;;;;;4786562;29;19933;-69
2022/07/03 01:32:57;;;;;;;;;;;15.80;99.90;;;;;;4769810;29;19990;-72
2022/07/03 01:35:27;;;;;;;;;;;15.80;99.90;;;;;;4800765;29;19933;-69
2022/07/03 01:37:54;;;;;;;;;;;15.70;99.90;;;;;;4777024;29;19943;-71
2022/07/03 01:40:21;;;;;;;;;;;15.70;99.90;;;;;;4786967;29;19983;-70
2022/07/03 01:42:48;;;;;;;;;;;15.60;99.90;;;;;;4781702;29;19969;-69
2022/07/03 01:45:14;;;;;;;;;;;15.60;99.90;;;;;;4787870;29;20355;-70
2022/07/03 01:47:41;;;;;;;;;;;15.60;99.90;;;;;;4786260;29;20016;-70
2022/07/03 01:50:07;;;;;;;;;;;15.60;99.90;;;;;;4789190;29;19940;-69
2022/07/03 01:52:32;;;;;;;;;;;15.60;99.90;;;;;;4776512;29;19925;-70
2022/07/03 01:54:59;;;;;;;;;;;15.50;99.90;;;;;;4766710;29;19931;-71
2022/07/03 01:57:27;;;;;;;;;;;15.50;99.90;;;;;;4783034;29;19948;-69
2022/07/03 01:59:53;;;;;;;;;;;15.40;99.90;;;;;;4802217;29;19933;-69
2022/07/03 02:02:24;;;;;;;;;;;15.40;99.90;;;;;;4802948;29;20028;-69
2022/07/03 02:05:00;;;;;;;;;;;15.30;99.90;;;;;;4785630;29;19938;-70
2022/07/03 02:07:32;;;;;;;;;;;15.30;99.90;;;;;;4787282;29;19940;-69
2022/07/03 02:10:08;;;;;;;;;;;15.20;99.90;;;;;;4786240;29;20405;-68
2022/07/03 02:13:00;;;;;;;;;;;15.20;99.90;;;;;;4789389;29;20019;-70
2022/07/03 02:15:35;;;;;;;;;;;15.20;99.90;;;;;;4770562;29;19985;-69
2022/07/03 02:18:03;;;;;;;;;;;15.10;99.90;;;;;;4789995;29;20083;-69
2022/07/03 02:20:34;;;;;;;;;;;15.10;99.90;;;;;;4785263;29;19935;-69
2022/07/03 02:23:01;;;;;;;;;;;15.00;99.90;;;;;;4787019;29;20659;-70
2022/07/03 02:25:34;;;;;;;;;;;15.00;99.90;;;;;;4786051;29;19932;-70
2022/07/03 02:27:59;;;;;;;;;;;14.90;99.90;;;;;;4787227;29;19932;-71
2022/07/03 02:30:27;;;;;;;;;;;14.90;99.90;;;;;;4803637;29;19925;-71
2022/07/03 02:32:53;;;;;;;;;;;14.80;99.90;;;;;;4803503;29;20020;-70
2022/07/03 02:35:22;;;;;;;;;;;14.80;99.90;;;;;;4788655;29;20007;-71
2022/07/03 02:37:50;;;;;;;;;;;14.70;99.90;;;;;;4773212;29;19925;-71
2022/07/03 02:40:30;;;;;;;;;;;14.70;99.90;;;;;;4803550;29;19982;-71
2022/07/03 02:43:10;;;;;;;;;;;14.60;99.90;;;;;;4803330;29;19929;-69
2022/07/03 02:45:50;;;;;;;;;;;14.60;99.90;;;;;;4786108;29;20379;-68
2022/07/03 02:48:35;;;;;;;;;;;14.60;99.90;;;;;;4787007;29;19952;-69
2022/07/03 02:51:04;;;;;;;;;;;14.60;99.90;;;;;;4787961;29;19990;-69
2022/07/03 02:57:09;;;;;;;;;;;14.40;99.90;;;;;;4804274;29;20026;-69
2022/07/03 02:59:54;;;;;;;;;;;14.50;99.90;;;;;;4788770;29;20028;-70
2022/07/03 03:02:25;;;;;;;;;;;14.50;99.90;;;;;;4786658;29;20252;-70
2022/07/03 03:05:11;;;;;;;;;;;14.50;99.90;;;;;;4789011;29;20232;-70
2022/07/03 03:07:45;;;;;;;;;;;14.40;99.90;;;;;;4788105;29;19925;-70
2022/07/03 03:10:12;;;;;;;;;;;14.50;99.90;;;;;;4787786;29;19984;-70
2022/07/03 03:12:40;;;;;;;;;;;14.40;99.90;;;;;;4784883;29;20268;-68
2022/07/03 03:15:07;;;;;;;;;;;14.50;99.90;;;;;;4786681;29;19932;-72
2022/07/03 03:17:41;;;;;;;;;;;14.40;99.90;;;;;;4787336;29;19933;-69
2022/07/03 03:20:07;;;;;;;;;;;14.40;99.90;;;;;;4803004;29;19977;-71
2022/07/03 03:22:43;;;;;;;;;;;14.40;99.90;;;;;;4787980;29;19940;-68
2022/07/03 03:25:09;;;;;;;;;;;14.40;99.90;;;;;;4787489;29;19925;-69
2022/07/03 03:27:34;;;;;;;;;;;14.40;99.90;;;;;;4771688;29;19933;-71
2022/07/03 03:30:00;;;;;;;;;;;14.40;99.90;;;;;;4771953;29;19986;-69
2022/07/03 03:32:26;;;;;;;;;;;14.40;99.90;;;;;;4803231;29;19931;-70
2022/07/03 03:34:51;;;;;;;;;;;14.40;99.90;;;;;;4803880;29;20018;-71
2022/07/03 03:37:17;;;;;;;;;;;14.50;99.90;;;;;;4787967;29;19990;-70
2022/07/03 03:39:42;;;;;;;;;;;14.50;99.90;;;;;;4786409;29;19964;-69
2022/07/03 03:42:08;;;;;;;;;;;14.50;99.90;;;;;;4797929;29;19925;-71
2022/07/03 03:44:33;;;;;;;;;;;14.50;99.90;;;;;;4790020;29;19925;-70
2022/07/03 03:46:59;;;;;;;;;;;14.50;99.90;;;;;;4791715;29;19934;-69
2022/07/03 03:49:24;;;;;;;;;;;14.50;99.90;;;;;;4791246;29;19978;-70
2022/07/03 03:51:50;;;;;;;;;;;14.60;99.90;;;;;;4789354;29;20433;-72
2022/07/03 03:54:15;;;;;;;;;;;14.60;99.90;;;;;;4787575;29;19964;-70
2022/07/03 03:56:41;;;;;;;;;;;14.70;99.90;;;;;;4790713;29;19933;-71
2022/07/03 03:59:06;;;;;;;;;;;14.70;99.90;;;;;;4791842;29;19925;-72
2022/07/03 04:01:32;;;;;;;;;;;14.70;99.90;;;;;;4807055;29;20378;-71
2022/07/03 04:03:59;;;;;;;;;;;14.80;99.90;;;;;;4790780;29;19932;-70
2022/07/03 04:06:24;;;;;;;;;;;14.80;99.90;;;;;;4807546;29;20012;-69
2022/07/03 04:08:50;;;;;;;;;;;14.90;99.90;;;;;;4788244;29;20046;-71
2022/07/03 04:11:16;;;;;;;;;;;14.80;99.90;;;;;;4791436;29;19925;-71
2022/07/03 04:13:41;;;;;;;;;;;14.80;99.90;;;;;;4790596;29;19925;-69
2022/07/03 04:16:07;;;;;;;;;;;14.90;99.90;;;;;;4786964;29;19933;-70
2022/07/03 04:18:32;;;;;;;;;;;14.90;99.90;;;;;;4790605;29;20393;-72
2022/07/03 04:20:58;;;;;;;;;;;14.90;99.90;;;;;;4789355;29;19932;-71
2022/07/03 04:23:24;;;;;;;;;;;14.90;99.90;;;;;;4806643;29;19932;-69
2022/07/03 04:25:49;;;;;;;;;;;14.90;99.90;;;;;;4773415;29;19925;-71
2022/07/03 04:28:14;;;;;;;;;;;15.00;99.90;;;;;;4804387;29;20001;-71
2022/07/03 04:30:40;;;;;;;;;;;15.00;99.90;;;;;;4790918;29;19925;-71
2022/07/03 04:33:05;;;;;;;;;;;15.00;99.90;;;;;;4789879;29;19925;-71
2022/07/03 04:35:31;;;;;;;;;;;15.00;99.90;;;;;;4805683;29;20027;-70
2022/07/03 04:37:56;;;;;;;;;;;15.00;99.90;;;;;;4807052;29;20248;-70
2022/07/03 04:40:22;;;;;;;;;;;15.00;99.90;;;;;;4805845;29;19998;-69
2022/07/03 04:42:47;;;;;;;;;;;14.90;99.90;;;;;;4806259;29;20053;-71
2022/07/03 04:45:13;;;;;;;;;;;15.00;99.90;;;;;;4789719;29;20418;-69
2022/07/03 04:47:38;;;;;;;;;;;15.00;99.90;;;;;;4783357;29;19933;-69
2022/07/03 04:50:04;;;;;;;;;;;15.10;99.90;;;;;;4795233;29;20070;-70
2022/07/03 04:52:30;;;;;;;;;;;15.00;99.90;;;;;;4803462;29;20042;-72
2022/07/03 04:54:55;;;;;;;;;;;15.10;99.90;;;;;;4790601;29;19925;-70
2022/07/03 04:57:21;;;;;;;;;;;15.30;99.90;;;;;;4774767;29;19925;-71
2022/07/03 04:59:46;;;;;;;;;;;15.10;99.90;;;;;;4785711;29;20016;-70
2022/07/03 05:02:12;;;;;;;;;;;15.10;99.90;;;;;;4793177;29;19925;-71
2022/07/03 05:04:37;;;;;;;;;;;15.10;99.90;;;;;;4788472;29;19928;-69
2022/07/03 05:07:03;;;;;;;;;;;15.10;99.90;;;;;;4788881;29;19928;-70
2022/07/03 05:09:28;;;;;;;;;;;15.10;99.90;;;;;;4803876;29;19925;-70
2022/07/03 05:11:54;;;;;;;;;;;15.10;99.90;;;;;;4789454;29;19969;-71
2022/07/03 05:14:19;;;;;;;;;;;15.10;99.90;;;;;;4784576;29;19925;-69
2022/07/03 05:16:45;;;;;;;;;;;15.20;99.90;;;;;;4781220;29;19951;-69
2022/07/03 05:19:10;;;;;;;;;;;15.20;99.90;;;;;;4783577;29;19979;-68
2022/07/03 05:21:36;;;;;;;;;;;15.30;99.90;;;;;;4777522;29;20388;-71
2022/07/03 05:24:02;;;;;;;;;;;15.40;99.90;;;;;;4784575;29;19929;-71
2022/07/03 05:26:28;;;;;;;;;;;15.50;99.90;;;;;;4779238;29;19925;-72
2022/07/03 05:28:54;;;;;;;;;;;15.60;99.90;;;;;;4780380;29;20028;-69
2022/07/03 05:31:20;;;;;;;;;;;15.80;99.90;;;;;;4777587;29;19961;-69
2022/07/03 05:33:45;;;;;;;;;;;16.00;99.90;;;;;;4781381;29;19979;-71
2022/07/03 05:36:11;;;;;;;;;;;16.80;99.90;;;;;;4778482;29;20356;-71
2022/07/03 05:41:20;;;;;;;;;;;19.40;99.90;;;;;;4787584;29;19925;-71
2022/07/03 05:43:46;;;;;;;;;;;20.80;99.90;;;;;;4779342;30;19925;-70
2022/07/03 05:46:12;;;;;;;;;;;21.60;99.90;;;;;;4779309;30;21626;-75
2022/07/03 05:48:37;;;;;;;;;;;22.40;99.90;;;;;;4774604;30;20000;-69
2022/07/03 05:51:03;;;;;;;;;;;22.90;99.90;;;;;;4775467;29;20025;-70
2022/07/03 05:53:28;;;;;;;;;;;23.50;99.90;;;;;;4787865;30;19978;-70
2022/07/03 05:55:54;;;;;;;;;;;23.90;99.90;;;;;;4780462;29;20033;-71
2022/07/03 05:58:19;;;;;;;;;;;24.20;99.90;;;;;;4779804;30;19999;-69
2022/07/03 06:00:45;;;;;;;;;;;24.40;99.90;;;;;;4784792;30;19925;-71
2022/07/03 06:03:10;;;;;;;;;;;24.70;99.90;;;;;;4777826;30;20299;-71
2022/07/03 06:05:36;;;;;;;;;;;25.00;99.90;;;;;;4778055;29;19983;-73
2022/07/03 06:08:01;;;;;;;;;;;25.30;99.90;;;;;;4779852;30;19926;-71
2022/07/03 06:10:28;;;;;;;;;;;25.40;99.90;;;;;;4785809;29;19927;-73
2022/07/03 06:12:54;;;;;;;;;;;25.70;99.90;;;;;;4781861;30;19955;-72
2022/07/03 06:15:19;;;;;;;;;;;26.00;99.90;;;;;;4784968;30;19930;-71
2022/07/03 06:17:45;;;;;;;;;;;25.90;96.80;;;;;;4777683;30;20376;-72
2022/07/03 06:20:10;;;;;;;;;;;25.10;98.20;;;;;;4788939;29;19948;-73
2022/07/03 06:22:37;;;;;;;;;;;24.40;99.90;;;;;;4780439;30;19932;-74
2022/07/03 06:25:02;;;;;;;;;;;23.90;99.90;;;;;;4786091;29;20368;-70
2022/07/03 06:27:28;;;;;;;;;;;23.60;99.90;;;;;;4779038;30;19925;-70
2022/07/03 06:29:54;;;;;;;;;;;23.90;99.90;;;;;;4781551;29;20016;-72
2022/07/03 06:32:19;;;;;;;;;;;24.40;99.90;;;;;;4761296;30;20020;-72
2022/07/03 06:34:45;;;;;;;;;;;24.50;99.90;;;;;;4779383;30;19925;-73
2022/07/03 06:37:11;;;;;;;;;;;24.20;99.90;;;;;;4784920;29;19982;-70
2022/07/03 06:39:37;;;;;;;;;;;23.70;99.90;;;;;;4787095;29;19974;-70
2022/07/03 06:42:03;;;;;;;;;;;23.70;99.90;;;;;;4776167;30;19982;-67
2022/07/03 06:44:29;;;;;;;;;;;23.60;99.90;;;;;;4780485;29;20256;-70
2022/07/03 06:46:54;;;;;;;;;;;23.20;99.90;;;;;;4777229;30;19999;-69
2022/07/03 06:49:20;;;;;;;;;;;22.90;99.90;;;;;;4776522;30;19932;-71
2022/07/03 06:51:45;;;;;;;;;;;22.60;99.90;;;;;;4781956;30;19937;-70
2022/07/03 06:54:11;;;;;;;;;;;22.40;99.90;;;;;;4778356;29;20077;-70
2022/07/03 06:56:37;;;;;;;;;;;22.30;99.90;;;;;;4781143;29;20031;-71
2022/07/03 06:59:03;;;;;;;;;;;22.30;99.90;;;;;;4782906;29;19955;-68
2022/07/03 07:01:28;;;;;;;;;;;22.20;99.90;;;;;;4781500;29;20429;-71
2022/07/03 07:03:54;;;;;;;;;;;22.10;99.90;;;;;;4778268;29;19953;-70
2022/07/03 07:06:19;;;;;;;;;;;22.20;99.90;;;;;;4778988;29;20017;-71
2022/07/03 07:08:45;;;;;;;;;;;22.10;99.90;;;;;;4778843;30;20020;-71
2022/07/03 07:11:10;;;;;;;;;;;22.20;99.90;;;;;;4778992;29;19948;-70
2022/07/03 07:13:36;;;;;;;;;;;22.20;99.90;;;;;;4781327;30;20032;-70
2022/07/03 07:16:01;;;;;;;;;;;22.20;99.90;;;;;;4782199;29;19929;-71
2022/07/03 07:18:27;;;;;;;;;;;22.30;99.90;;;;;;4781096;29;19925;-71
2022/07/03 07:20:52;;;;;;;;;;;22.30;99.90;;;;;;4802267;29;19929;-70
2022/07/03 07:23:18;;;;;;;;;;;22.50;99.90;;;;;;4776153;30;19925;-71
2022/07/03 07:25:43;;;;;;;;;;;22.50;99.90;;;;;;4774744;30;19926;-71
2022/07/03 07:28:09;;;;;;;;;;;22.60;99.90;;;;;;4774983;29;19925;-73
2022/07/03 07:30:34;;;;;;;;;;;22.50;99.90;;;;;;4775538;30;19933;-74
2022/07/03 07:33:00;;;;;;;;;;;22.80;99.90;;;;;;4774513;30;20303;-72
2022/07/03 07:35:25;;;;;;;;;;;22.90;99.90;;;;;;4760217;30;19968;-72
2022/07/03 07:37:51;;;;;;;;;;;23.00;99.90;;;;;;4790700;29;19926;-73
2022/07/03 07:40:16;;;;;;;;;;;23.10;99.90;;;;;;4775171;29;20344;-73
2022/07/03 07:42:42;;;;;;;;;;;23.20;99.90;;;;;;4774870;30;19926;-73
2022/07/03 07:45:09;;;;;;;;;;;23.20;99.90;;;;;;4774980;30;19926;-73
2022/07/03 07:47:34;;;;;;;;;;;23.30;99.90;;;;;;4774550;30;20358;-71
2022/07/03 07:50:00;;;;;;;;;;;23.20;99.90;;;;;;4775512;30;19925;-73
2022/07/03 07:52:25;;;;;;;;;;;23.00;99.90;;;;;;4774604;30;19925;-71
2022/07/03 07:54:51;;;;;;;;;;;22.90;99.90;;;;;;4791234;29;19932;-73
2022/07/03 07:57:17;;;;;;;;;;;22.90;99.90;;;;;;4775117;30;19933;-73
2022/07/03 07:59:42;;;;;;;;;;;22.90;99.90;;;;;;4775331;30;20376;-71
2022/07/03 08:07:36;;;;;;;;;;;22.70;99.90;;;;;;4774427;30;19937;-73
2022/07/03 08:10:02;;;;;;;;;;;22.80;99.90;;;;;;4774694;29;19925;-74
2022/07/03 08:12:28;;;;;;;;;;;22.90;99.90;;;;;;4774263;30;19925;-75
2022/07/03 08:14:53;;;;;;;;;;;23.00;99.90;;;;;;4774432;30;19956;-72
2022/07/03 08:17:19;;;;;;;;;;;23.10;99.90;;;;;;4774003;29;19931;-74
2022/07/03 08:19:44;;;;;;;;;;;23.00;99.90;;;;;;4774546;30;19929;-72
2022/07/03 08:22:10;;;;;;;;;;;22.90;99.90;;;;;;4774396;30;19925;-73
2022/07/03 08:24:37;;;;;;;;;;;22.80;99.90;;;;;;4774109;30;20436;-74
2022/07/03 08:27:03;;;;;;;;;;;22.80;99.90;;;;;;4774495;30;20310;-72
2022/07/03 08:29:29;;;;;;;;;;;22.70;99.90;;;;;;4773521;30;20016;-74
2022/07/03 08:31:54;;;;;;;;;;;22.80;99.90;;;;;;4773626;30;20019;-74
2022/07/03 08:34:20;;;;;;;;;;;22.90;99.90;;;;;;4759536;30;19926;-72
2022/07/03 08:36:45;;;;;;;;;;;23.20;99.90;;;;;;4774155;30;20024;-72
2022/07/03 08:39:11;;;;;;;;;;;23.40;99.90;;;;;;4774518;30;19932;-74
2022/07/03 08:41:37;;;;;;;;;;;23.60;99.90;;;;;;4774062;30;20415;-73
2022/07/03 08:44:03;;;;;;;;;;;23.70;99.90;;;;;;4774048;29;20016;-72
2022/07/03 08:46:30;;;;;;;;;;;23.60;99.90;;;;;;4774119;30;19977;-73
2022/07/03 08:48:57;;;;;;;;;;;23.40;99.90;;;;;;4759085;30;19930;-73
2022/07/03 08:51:23;;;;;;;;;;;23.30;99.90;;;;;;4773683;30;19931;-72
2022/07/03 08:53:49;;;;;;;;;;;23.30;99.90;;;;;;4789996;29;19932;-75
2022/07/03 08:56:15;;;;;;;;;;;23.30;99.90;;;;;;4773719;30;19933;-74
2022/07/03 08:58:40;;;;;;;;;;;23.40;99.90;;;;;;4759003;30;19981;-73
2022/07/03 09:01:06;;;;;;;;;;;23.50;99.90;;;;;;4773788;29;19925;-73
2022/07/03 09:03:31;;;;;;;;;;;23.50;99.90;;;;;;4773239;30;19928;-75
2022/07/03 09:05:58;;;;;;;;;;;23.40;99.90;;;;;;4773374;30;19933;-74
2022/07/03 09:08:26;;;;;;;;;;;23.60;99.90;;;;;;4773922;30;20000;-74
2022/07/03 09:10:51;;;;;;;;;;;23.60;99.90;;;;;;4773547;30;19925;-74
2022/07/03 09:13:16;;;;;;;;;;;23.60;99.90;;;;;;4773496;29;20199;-74
2022/07/03 09:15:44;;;;;;;;;;;23.50;99.90;;;;;;4773794;30;20047;-73
2022/07/03 09:18:09;;;;;;;;;;;23.40;99.90;;;;;;4789288;30;19982;-75
2022/07/03 09:20:37;;;;;;;;;;;23.60;99.90;;;;;;4789450;29;19929;-73
2022/07/03 09:23:15;;;;;;;;;;;23.60;99.90;;;;;;4773461;30;19925;-71
2022/07/03 09:25:55;;;;;;;;;;;23.60;99.80;;;;;;4758713;30;20387;-72
2022/07/03 09:28:21;;;;;;;;;;;23.70;99.90;;;;;;4773568;30;20019;-72
2022/07/03 09:30:55;;;;;;;;;;;23.70;99.90;;;;;;4773094;30;20298;-74
2022/07/03 09:33:46;;;;;;;;;;;23.80;99.90;;;;;;4772790;29;19929;-72
2022/07/03 09:36:11;;;;;;;;;;;23.90;99.90;;;;;;4789318;29;20037;-72
2022/07/03 09:38:43;;;;;;;;;;;24.10;99.90;;;;;;4773223;30;20028;-74
2022/07/03 09:41:08;;;;;;;;;;;23.90;99.90;;;;;;4772094;30;19955;-74
2022/07/03 09:43:33;;;;;;;;;;;24.00;92.40;;;;;;4789320;30;19929;-72
2022/07/03 09:46:02;;;;;;;;;;;23.80;79.90;;;;;;4772916;30;19963;-72
2022/07/03 09:48:29;;;;;;;;;;;23.70;77.70;;;;;;4772675;30;19925;-72
2022/07/03 09:51:27;;;;;;;;;;;23.70;79.50;;;;;;4772907;30;20015;-72
2022/07/03 09:53:56;;;;;;;;;;;23.70;66.10;;;;;;4778024;30;19972;-71
2022/07/03 09:56:24;;;;;;;;;;;23.80;97.00;;;;;;4772574;30;19925;-74
2022/07/03 09:59:01;;;;;;;;;;;23.90;71.90;;;;;;4758050;30;19925;-72
2022/07/03 10:01:27;;;;;;;;;;;24.10;70.80;;;;;;4788753;29;20375;-73
2022/07/03 10:03:53;;;;;;;;;;;24.30;69.80;;;;;;4772490;30;19932;-73
2022/07/03 10:06:19;;;;;;;;;;;24.50;62.10;;;;;;4788442;29;19929;-72
2022/07/03 10:08:46;;;;;;;;;;;24.30;63.00;;;;;;4772485;30;19929;-73
2022/07/03 10:11:12;;;;;;;;;;;24.30;77.90;;;;;;4772601;30;19928;-73
2022/07/03 10:13:39;;;;;;;;;;;24.30;82.40;;;;;;4772332;30;19986;-72
2022/07/03 10:16:06;;;;;;;;;;;24.40;69.00;;;;;;4757755;30;19978;-72
2022/07/03 10:18:33;;;;;;;;;;;24.40;80.90;;;;;;4771714;30;19929;-74
2022/07/03 10:24:18;;;;;;;;;;;24.50;70.80;;;;;;4788539;29;19925;-74
2022/07/03 10:26:44;;;;;;;;;;;24.30;93.10;;;;;;4757594;30;19926;-74
2022/07/03 10:29:34;;;;;;;;;;;24.40;98.50;;;;;;4788321;29;20016;-74
2022/07/03 10:32:25;;;;;;;;;;;24.60;81.00;;;;;;4771756;30;19952;-76
2022/07/03 10:34:51;;;;;;;;;;;24.70;85.50;;;;;;4772125;30;19928;-73
2022/07/03 10:37:20;;;;;;;;;;;24.70;60.90;;;;;;4772132;30;20024;-75
2022/07/03 10:44:45;;;;;;;;;;;24.80;65.30;;;;;;4772108;30;19921;-74
2022/07/03 10:49:59;;;;;;;;;;;24.40;58.40;;;;;;4768272;30;19960;-74
2022/07/03 10:52:25;;;;;;;;;;;24.30;59.20;;;;;;4752784;30;19925;-73
2022/07/03 10:54:56;;;;;;;;;;;24.50;66.10;;;;;;4753207;30;19921;-74
2022/07/03 10:57:25;;;;;;;;;;;24.60;62.30;;;;;;4753309;30;19930;-74
2022/07/03 10:59:51;;;;;;;;;;;24.80;62.90;;;;;;4753590;30;19926;-76
2022/07/03 11:02:26;;;;;;;;;;;24.90;67.00;;;;;;4752727;30;20057;-74
2022/07/03 11:05:01;;;;;;;;;;;24.90;62.50;;;;;;4753136;30;20346;-76
2022/07/03 11:07:26;;;;;;;;;;;24.90;62.00;;;;;;4767872;30;20027;-76
2022/07/03 11:10:13;;;;;;;;;;;24.60;60.40;;;;;;4753144;30;19925;-73
2022/07/03 11:12:58;;;;;;;;;;;24.40;60.30;;;;;;4754264;30;19925;-73
2022/07/03 11:15:34;;;;;;;;;;;24.30;67.20;;;;;;4787999;30;19925;-74
2022/07/03 11:18:08;;;;;;;;;;;24.30;79.50;;;;;;4787434;29;19972;-75
2022/07/03 11:20:36;;;;;;;;;;;24.60;78.60;;;;;;4787518;29;20287;-74
2022/07/03 11:23:13;;;;;;;;;;;24.60;61.70;;;;;;4788068;29;20347;-72
2022/07/03 11:25:39;;;;;;;;;;;24.50;73.10;;;;;;4771918;30;19925;-75
2022/07/03 11:28:04;;;;;;;;;;;24.50;68.50;;;;;;4771819;30;19930;-74
2022/07/03 11:30:31;;;;;;;;;;;24.50;69.30;;;;;;4771783;29;20011;-74
2022/07/03 11:32:57;;;;;;;;;;;24.60;66.90;;;;;;4771320;30;20316;-74
2022/07/03 11:35:42;;;;;;;;;;;24.60;72.80;;;;;;4771714;29;20040;-75
2022/07/03 11:38:08;;;;;;;;;;;24.60;70.00;;;;;;4771744;30;19936;-74
2022/07/03 11:40:35;;;;;;;;;;;24.70;73.00;;;;;;4771444;30;19926;-75
2022/07/03 11:43:01;;;;;;;;;;;24.80;71.10;;;;;;4787843;29;19926;-76
2022/07/03 11:45:30;;;;;;;;;;;24.90;69.00;;;;;;4787490;29;19933;-74
2022/07/03 11:51:16;;;;;;;;;;;24.80;67.80;;;;;;4752602;30;19957;-75
2022/07/03 11:53:45;;;;;;;;;;;24.90;71.40;;;;;;4752596;30;19922;-74
2022/07/03 11:56:12;;;;;;;;;;;25.10;80.10;;;;;;4767765;30;19965;-74
2022/07/03 11:59:02;;;;;;;;;;;25.00;64.90;;;;;;4752575;30;20016;-74
2022/07/03 12:01:37;;;;;;;;;;;25.00;72.90;;;;;;4749688;30;19928;-74
2022/07/03 12:04:33;;;;;;;;;;;24.90;77.40;;;;;;4750634;30;19979;-74
2022/07/03 12:07:01;;;;;;;;;;;25.00;77.40;;;;;;4774025;29;20008;-75
2022/07/03 12:09:26;;;;;;;;;;;25.10;77.40;;;;;;4774747;30;19926;-74
2022/07/03 12:11:56;;;;;;;;;;;25.10;67.30;;;;;;4775394;30;20382;-73
2022/07/03 12:14:41;;;;;;;;;;;25.10;78.70;;;;;;4760193;30;19990;-73
2022/07/03 12:17:09;;;;;;;;;;;25.10;74.30;;;;;;4774246;30;19921;-75
2022/07/03 12:19:54;;;;;;;;;;;25.40;83.00;;;;;;4774488;30;19926;-74
2022/07/03 12:22:32;;;;;;;;;;;25.40;72.60;;;;;;4774242;30;19947;-75
2022/07/03 12:24:58;;;;;;;;;;;25.10;82.90;;;;;;4774759;30;20268;-75
2022/07/03 12:27:25;;;;;;;;;;;24.90;74.90;;;;;;4774929;30;19926;-75
2022/07/03 12:30:16;;;;;;;;;;;24.90;74.50;;;;;;4759728;30;19985;-74
2022/07/03 12:36:03;;;;;;;;;;;24.40;77.60;;;;;;4790495;29;19919;-73
2022/07/03 12:38:39;;;;;;;;;;;;;;;;;;;;;
2022/07/03 12:41:09;;;;;;;;;;;24.40;90.10;;;;;;4774139;30;19925;-75
2022/07/03 12:43:42;;;;;;;;;;;24.40;85.00;;;;;;4790297;29;19925;-73
2022/07/03 12:46:25;;;;;;;;;;;24.50;82.60;;;;;;4774667;30;19921;-75
2022/07/03 12:48:57;;;;;;;;;;;24.50;76.10;;;;;;4773542;30;20366;-75
2022/07/03 12:51:36;;;;;;;;;;;24.70;90.80;;;;;;4774152;29;20024;-73
2022/07/03 12:54:02;;;;;;;;;;;24.70;96.10;;;;;;4773855;30;19928;-73
2022/07/03 12:56:53;;;;;;;;;;;24.90;92.80;;;;;;4773831;30;20353;-74
2022/07/03 12:59:47;;;;;;;;;;;25.00;84.50;;;;;;4774082;30;19984;-74
2022/07/03 13:02:13;;;;;;;;;;;25.20;92.30;;;;;;4774007;30;19925;-73
2022/07/03 13:04:39;;;;;;;;;;;25.40;91.00;;;;;;4773958;30;20295;-73
2022/07/03 13:07:06;;;;;;;;;;;25.40;68.00;;;;;;4773920;30;20363;-75
2022/07/03 13:09:32;;;;;;;;;;;25.60;76.40;;;;;;4773809;30;19955;-73
2022/07/03 13:11:58;;;;;;;;;;;25.70;69.50;;;;;;4773973;30;19930;-75
2022/07/03 13:14:24;;;;;;;;;;;25.60;66.40;;;;;;4759079;30;19926;-74
2022/07/03 13:16:51;;;;;;;;;;;25.50;66.10;;;;;;4773307;29;20367;-74
2022/07/03 13:19:17;;;;;;;;;;;25.30;61.90;;;;;;4773850;30;20004;-73
2022/07/03 13:21:43;;;;;;;;;;;25.10;71.70;;;;;;4773730;30;19926;-74
2022/07/03 13:24:09;;;;;;;;;;;24.80;73.60;;;;;;4773978;29;20025;-72
2022/07/03 13:26:35;;;;;;;;;;;24.70;65.20;;;;;;4789791;30;20035;-74
2022/07/03 13:29:01;;;;;;;;;;;24.50;64.10;;;;;;4773577;30;20449;-73
2022/07/03 13:31:27;;;;;;;;;;;24.40;75.40;;;;;;4773659;30;19925;-73
2022/07/03 13:33:52;;;;;;;;;;;24.20;70.50;;;;;;4789215;29;19925;-74
2022/07/03 13:36:18;;;;;;;;;;;24.00;78.70;;;;;;4773553;30;20028;-73
2022/07/03 13:38:44;;;;;;;;;;;23.90;90.10;;;;;;4773212;30;20028;-74
2022/07/03 13:41:10;;;;;;;;;;;23.70;87.20;;;;;;4773139;30;20393;-73
2022/07/03 13:43:36;;;;;;;;;;;23.60;96.70;;;;;;4789437;30;20010;-72
2022/07/03 13:46:02;;;;;;;;;;;23.20;97.00;;;;;;4773106;29;19925;-72
2022/07/03 13:48:27;;;;;;;;;;;23.00;99.90;;;;;;4772713;30;19942;-70
2022/07/03 13:50:53;;;;;;;;;;;22.30;99.90;;;;;;4758778;29;19929;-75
2022/07/03 13:53:18;;;;;;;;;;;21.10;99.90;;;;;;4773039;30;20410;-71
2022/07/03 13:55:44;;;;;;;;;;;20.10;99.90;;;;;;4773427;30;19925;-72
2022/07/03 13:58:10;;;;;;;;;;;19.40;99.90;;;;;;4789091;29;19933;-75
2022/07/03 14:00:36;;;;;;;;;;;18.60;99.90;;;;;;4758689;30;20371;-72
2022/07/03 14:03:02;;;;;;;;;;;18.30;99.90;;;;;;4772464;29;19968;-70
2022/07/03 14:05:28;;;;;;;;;;;18.20;99.90;;;;;;4773060;30;19958;-75
2022/07/03 14:07:53;;;;;;;;;;;17.90;99.90;;;;;;4772432;30;19926;-74
2022/07/03 14:10:20;;;;;;;;;;;18.00;99.90;;;;;;4788821;29;19933;-74
2022/07/03 14:12:46;;;;;;;;;;;18.00;99.90;;;;;;4788836;29;19933;-73
2022/07/03 14:15:11;;;;;;;;;;;18.30;99.90;;;;;;4788988;30;20071;-72
2022/07/03 14:17:37;;;;;;;;;;;18.20;99.90;;;;;;4772621;30;19925;-72
2022/07/03 14:20:03;;;;;;;;;;;18.30;99.90;;;;;;4757827;30;20411;-71
2022/07/03 14:22:28;;;;;;;;;;;18.40;99.90;;;;;;4772547;30;19925;-71
2022/07/03 14:24:54;;;;;;;;;;;18.40;99.90;;;;;;4772524;30;19929;-69
2022/07/03 14:32:49;;;;;;;;;;;18.80;99.90;;;;;;4771965;29;19944;-72
2022/07/03 14:35:14;;;;;;;;;;;19.00;99.90;;;;;;4772494;30;20411;-71
2022/07/03 14:37:40;;;;;;;;;;;18.90;99.90;;;;;;4788319;29;19928;-69
2022/07/03 14:40:05;;;;;;;;;;;19.40;99.90;;;;;;4772569;30;19926;-71
2022/07/03 14:42:31;;;;;;;;;;;19.70;99.90;;;;;;4772305;30;19978;-72
2022/07/03 14:44:56;;;;;;;;;;;20.00;99.90;;;;;;4772072;29;19925;-69
2022/07/03 14:47:22;;;;;;;;;;;20.30;99.90;;;;;;4772046;30;20302;-70
2022/07/03 14:49:47;;;;;;;;;;;20.30;99.90;;;;;;4772157;30;19978;-72
2022/07/03 14:52:13;;;;;;;;;;;20.30;99.90;;;;;;4757112;30;19974;-72
2022/07/03 14:54:41;;;;;;;;;;;20.40;99.90;;;;;;4772161;30;19925;-72
2022/07/03 14:57:11;;;;;;;;;;;20.50;99.90;;;;;;4771928;30;19958;-72
2022/07/03 15:00:03;;;;;;;;;;;20.50;99.90;;;;;;4772514;30;20275;-71